Time;durP1;ratioP1;P1;durP2;ratioP2;P2;SDS_P1;SDS_P2;PMS_P1;PMS_P2;Temp;Humidity;BMP_temperature;BMP_pressure;BME280_temperature;BME280_humidity;BME280_pressure;Samples;Min_cycle;Max_cycle;Signal;HPM_P1;HPM_P2
2023/02/22 00:00:58;;;;;;;79.30;30.58;;;6.40;99.90;;;;;;5069106;28;20085;-53
2023/02/22 00:03:31;;;;;;;75.73;29.00;;;6.40;99.90;;;;;;5069142;28;20029;-53
2023/02/22 00:06:03;;;;;;;75.43;29.77;;;6.30;99.90;;;;;;5068417;28;20043;-51
2023/02/22 00:08:31;;;;;;;76.70;30.43;;;6.20;99.90;;;;;;5069231;28;20033;-56
2023/02/22 00:10:59;;;;;;;82.20;29.55;;;6.20;99.90;;;;;;5069017;28;20028;-52
2023/02/22 00:13:27;;;;;;;74.13;28.30;;;6.10;99.90;;;;;;5068970;28;20051;-55
2023/02/22 00:15:57;;;;;;;76.32;28.98;;;6.10;99.90;;;;;;5069177;28;20073;-52
2023/02/22 00:18:26;;;;;;;78.27;29.67;;;6.00;99.90;;;;;;5069378;28;20048;-54
2023/02/22 00:20:53;;;;;;;68.85;27.20;;;6.00;99.90;;;;;;5068158;28;20020;-52
2023/02/22 00:23:21;;;;;;;82.77;30.03;;;5.90;99.90;;;;;;5069248;28;20472;-54
2023/02/22 00:25:49;;;;;;;80.07;29.53;;;5.80;99.90;;;;;;5069113;28;20029;-54
2023/02/22 00:28:18;;;;;;;80.17;31.00;;;5.80;99.90;;;;;;5069088;28;20028;-53
2023/02/22 00:30:44;;;;;;;83.85;31.77;;;5.70;99.90;;;;;;5068686;28;20035;-52
2023/02/22 00:33:14;;;;;;;80.00;30.17;;;5.60;99.90;;;;;;5068873;28;20086;-52
2023/02/22 00:35:44;;;;;;;85.70;30.03;;;5.50;99.90;;;;;;5067576;28;20480;-53
2023/02/22 00:38:11;;;;;;;86.13;29.80;;;5.50;99.90;;;;;;5068722;28;20055;-52
2023/02/22 00:40:39;;;;;;;78.77;28.13;;;5.40;99.90;;;;;;5068571;28;20107;-52
2023/02/22 00:43:05;;;;;;;81.87;28.80;;;5.40;99.90;;;;;;5051201;28;20035;-53
2023/02/22 00:45:32;;;;;;;85.60;28.97;;;5.40;99.90;;;;;;5053949;28;20036;-52
2023/02/22 00:47:58;;;;;;;80.30;27.73;;;5.30;99.90;;;;;;5072377;28;20029;-53
2023/02/22 00:50:26;;;;;;;86.50;30.20;;;5.30;99.90;;;;;;5071039;28;20037;-55
2023/02/22 00:52:53;;;;;;;76.63;27.20;;;5.20;99.90;;;;;;5072323;28;20081;-53
2023/02/22 00:55:28;;;;;;;80.70;27.73;;;5.10;99.90;;;;;;5071744;28;20341;-50
2023/02/22 00:57:55;;;;;;;85.20;27.73;;;5.10;99.90;;;;;;5053999;28;20032;-54
2023/02/22 01:00:29;;;;;;;84.43;29.00;;;5.00;99.90;;;;;;5071764;28;20184;-52
2023/02/22 01:02:56;;;;;;;89.87;29.20;;;4.90;99.90;;;;;;5072117;28;20401;-54
2023/02/22 01:05:26;;;;;;;81.33;28.33;;;4.80;99.90;;;;;;5070795;28;20090;-53
2023/02/22 01:07:54;;;;;;;90.50;29.30;;;4.70;99.90;;;;;;5071957;28;20391;-52
2023/02/22 01:10:22;;;;;;;87.23;28.10;;;4.60;99.90;;;;;;5053220;28;20044;-53
2023/02/22 01:12:48;;;;;;;86.57;28.93;;;4.50;99.90;;;;;;5053657;28;20028;-53
2023/02/22 01:15:20;;;;;;;79.00;26.90;;;4.50;99.90;;;;;;5053493;28;20158;-52
2023/02/22 01:17:47;;;;;;;82.40;28.83;;;4.40;99.90;;;;;;5071749;28;20060;-53
2023/02/22 01:20:12;;;;;;;93.97;29.70;;;4.40;99.90;;;;;;5070575;28;20051;-52
2023/02/22 01:22:41;;;;;;;89.53;27.87;;;4.30;99.90;;;;;;5071577;28;20029;-51
2023/02/22 01:25:08;;;;;;;82.83;28.23;;;4.20;99.90;;;;;;5071386;28;20144;-52
2023/02/22 01:27:34;;;;;;;93.50;29.33;;;4.20;99.90;;;;;;5071542;28;20111;-54
2023/02/22 01:30:07;;;;;;;86.97;27.37;;;4.20;99.90;;;;;;5053178;28;20632;-53
2023/02/22 01:32:40;;;;;;;87.00;27.97;;;4.20;99.90;;;;;;5071822;28;20441;-52
2023/02/22 01:35:10;;;;;;;88.47;29.23;;;4.20;99.90;;;;;;5051867;28;20116;-51
2023/02/22 01:37:37;;;;;;;91.13;28.73;;;4.10;99.90;;;;;;5053215;28;20028;-53
2023/02/22 01:40:08;;;;;;;84.50;28.43;;;4.10;99.90;;;;;;5052962;28;20056;-54
2023/02/22 01:42:34;;;;;;;89.77;28.50;;;4.10;99.90;;;;;;5071454;28;20169;-52
2023/02/22 01:45:28;;;;;;;82.13;26.67;;;4.10;99.90;;;;;;5052600;28;20043;-53
2023/02/22 01:48:15;;;;;;;87.87;28.13;;;4.00;99.90;;;;;;5052852;28;20077;-53
2023/02/22 01:50:52;;;;;;;90.43;28.70;;;4.00;99.90;;;;;;5052234;28;20087;-54
2023/02/22 01:53:21;;;;;;;91.63;28.30;;;3.90;99.90;;;;;;5052834;28;20029;-51
2023/02/22 01:55:47;;;;;;;89.27;28.73;;;3.90;99.90;;;;;;5069523;28;20048;-52
2023/02/22 01:58:15;;;;;;;82.90;27.30;;;3.80;99.90;;;;;;5070860;28;20024;-54
2023/02/22 02:00:43;;;;;;;91.23;28.87;;;3.70;99.90;;;;;;5052657;28;20085;-54
2023/02/22 02:03:20;;;;;;;88.40;27.40;;;3.70;99.90;;;;;;5053018;28;20379;-54
2023/02/22 02:05:48;;;;;;;84.13;27.93;;;3.70;99.90;;;;;;5070014;28;20548;-53
2023/02/22 02:08:26;;;;;;;91.47;29.00;;;3.60;99.90;;;;;;5071003;28;20028;-56
2023/02/22 02:10:55;;;;;;;95.23;28.80;;;3.60;99.90;;;;;;5070424;28;20146;-54
2023/02/22 02:13:21;;;;;;;105.07;30.30;;;3.60;99.90;;;;;;5051724;28;20028;-53
2023/02/22 02:15:48;;;;;;;103.13;30.80;;;3.60;99.90;;;;;;5070260;28;20195;-55
2023/02/22 02:18:15;;;;;;;122.13;31.83;;;3.60;99.90;;;;;;5052349;28;20492;-54
2023/02/22 02:21:05;;;;;;;125.47;31.97;;;3.60;99.90;;;;;;5051334;28;20029;-53
2023/02/22 02:23:59;;;;;;;122.00;32.27;;;3.60;99.90;;;;;;5052060;28;20439;-55
2023/02/22 02:26:43;;;;;;;124.23;30.97;;;3.60;99.90;;;;;;5070279;28;20036;-55
2023/02/22 02:29:38;;;;;;;133.57;30.37;;;3.60;99.90;;;;;;5051884;28;20111;-53
2023/02/22 02:32:15;;;;;;;115.27;31.67;;;3.60;99.90;;;;;;5015169;28;20164;-54
2023/02/22 02:34:56;;;;;;;181.17;32.20;;;3.70;99.90;;;;;;5050768;28;20032;-53
2023/02/22 02:37:43;;;;;;;130.00;31.97;;;3.60;99.90;;;;;;5070038;28;20510;-53
2023/02/22 02:40:28;;;;;;;218.00;34.97;;;3.70;99.90;;;;;;5069831;28;20089;-54
2023/02/22 02:43:07;;;;;;;159.37;33.53;;;3.70;99.90;;;;;;5070096;28;20024;-53
2023/02/22 02:45:42;;;;;;;119.90;31.63;;;3.60;99.90;;;;;;5069715;28;20112;-53
2023/02/22 02:48:11;;;;;;;130.20;33.57;;;3.60;99.90;;;;;;5069730;28;20025;-51
2023/02/22 02:50:45;;;;;;;124.45;32.55;;;3.60;99.90;;;;;;5068749;28;20040;-56
2023/02/22 02:53:15;;;;;;;122.97;30.13;;;3.50;99.90;;;;;;5069811;28;20036;-53
2023/02/22 02:55:42;;;;;;;124.97;31.10;;;3.50;99.90;;;;;;5069627;28;20391;-52
2023/02/22 02:58:15;;;;;;;171.30;31.93;;;3.60;99.90;;;;;;5069820;28;20505;-55
2023/02/22 03:00:41;;;;;;;111.83;27.17;;;3.60;99.90;;;;;;5051358;28;20131;-51
2023/02/22 03:03:09;;;;;;;116.67;26.40;;;3.70;99.90;;;;;;5051660;28;20186;-52
2023/02/22 03:05:53;;;;;;;86.75;25.63;;;3.70;99.90;;;;;;5030910;28;20310;-51
2023/02/22 03:08:39;;;;;;;141.20;27.20;;;3.70;99.90;;;;;;5049541;28;20067;-52
2023/02/22 03:11:15;;;;;;;113.93;26.37;;;3.70;99.90;;;;;;5049102;28;20045;-53
2023/02/22 03:13:47;;;;;;;175.67;26.90;;;3.80;99.90;;;;;;5031151;28;20397;-53
2023/02/22 03:16:28;;;;;;;114.10;24.37;;;3.90;99.90;;;;;;5031086;28;20493;-52
2023/02/22 03:19:31;;;;;;;80.97;22.40;;;3.90;99.90;;;;;;5049198;28;20469;-54
2023/02/22 03:22:00;;;;;;;73.07;22.10;;;4.00;99.90;;;;;;5031358;28;20044;-55
2023/02/22 03:24:29;;;;;;;;;;;4.10;99.90;;;;;;5031355;28;20211;-54
2023/02/22 03:26:58;;;;;;;82.63;20.37;;;4.10;99.90;;;;;;5049356;28;19991;-53
2023/02/22 03:29:26;;;;;;;93.80;21.02;;;4.10;99.90;;;;;;5031030;28;20032;-52
2023/02/22 03:32:00;;;;;;;81.43;20.40;;;4.10;99.90;;;;;;5031290;28;20100;-54
2023/02/22 03:34:36;;;;;;;88.70;21.17;;;4.20;99.90;;;;;;5029865;28;20545;-54
2023/02/22 03:37:15;;;;;;;80.30;19.93;;;4.10;99.90;;;;;;5031031;28;20051;-54
2023/02/22 03:39:45;;;;;;;116.03;24.73;;;4.10;99.90;;;;;;5048872;28;20633;-54
2023/02/22 03:42:18;;;;;;;144.82;24.10;;;4.10;99.90;;;;;;5049220;28;20029;-53
2023/02/22 03:44:46;;;;;;;79.50;21.80;;;4.10;99.90;;;;;;5030643;28;20112;-54
2023/02/22 03:47:19;;;;;;;96.78;23.23;;;4.10;99.90;;;;;;5031216;28;20083;-54
2023/02/22 03:49:55;;;;;;;123.50;24.83;;;4.20;99.90;;;;;;5048111;28;20037;-54
2023/02/22 03:52:23;;;;;;;83.37;20.70;;;4.20;99.90;;;;;;5049358;28;20114;-52
2023/02/22 03:54:53;;;;;;;77.40;18.98;;;4.30;99.90;;;;;;5048411;28;20017;-53
2023/02/22 03:57:25;;;;;;;93.93;20.10;;;4.30;99.90;;;;;;5030946;28;20369;-53
2023/02/22 04:00:05;;;;;;;175.40;21.27;;;4.30;99.90;;;;;;5030796;28;20080;-55
2023/02/22 04:02:39;;;;;;;106.63;18.27;;;4.30;99.90;;;;;;5048969;28;20033;-55
2023/02/22 04:05:06;;;;;;;94.40;18.57;;;4.30;99.90;;;;;;5029556;28;20427;-53
2023/02/22 04:07:32;;;;;;;67.67;18.03;;;4.20;99.90;;;;;;5030680;28;20028;-53
2023/02/22 04:09:58;;;;;;;76.47;17.93;;;4.20;99.90;;;;;;5030291;28;20059;-54
2023/02/22 04:12:24;;;;;;;79.57;19.30;;;4.20;99.90;;;;;;5030804;28;20037;-53
2023/02/22 04:14:57;;;;;;;63.60;17.03;;;4.20;99.90;;;;;;5030081;28;20512;-55
2023/02/22 04:17:23;;;;;;;92.43;19.37;;;4.20;99.90;;;;;;5030693;28;20025;-52
2023/02/22 04:19:49;;;;;;;99.80;18.67;;;4.20;99.90;;;;;;5032728;28;20041;-53
2023/02/22 04:22:15;;;;;;;78.87;20.13;;;4.20;99.90;;;;;;5034817;28;20151;-52
2023/02/22 04:24:44;;;;;;;70.53;16.80;;;4.20;99.90;;;;;;5034223;28;20036;-53
2023/02/22 04:27:10;;;;;;;69.77;16.97;;;4.10;99.90;;;;;;5034522;28;20029;-52
2023/02/22 04:29:37;;;;;;;86.23;18.70;;;4.10;99.90;;;;;;5034104;28;20028;-53
2023/02/22 04:32:06;;;;;;;69.67;17.57;;;4.20;99.90;;;;;;5034501;28;20253;-51
2023/02/22 04:34:32;;;;;;;98.13;18.87;;;4.10;99.90;;;;;;5032764;28;20382;-52
2023/02/22 04:36:57;;;;;;;70.70;19.73;;;4.10;99.90;;;;;;5034145;28;20067;-54
2023/02/22 04:39:23;;;;;;;94.13;19.87;;;4.20;99.90;;;;;;5017491;28;20537;-53
2023/02/22 04:41:50;;;;;;;143.90;19.63;;;4.20;99.90;;;;;;5034332;28;20029;-54
2023/02/22 04:44:16;;;;;;;75.23;18.80;;;4.10;99.90;;;;;;5033719;28;20052;-53
2023/02/22 04:46:42;;;;;;;91.80;21.30;;;4.20;99.90;;;;;;5052196;28;20029;-55
2023/02/22 04:49:08;;;;;;;79.90;18.90;;;4.20;99.90;;;;;;5032809;28;20032;-55
2023/02/22 04:51:37;;;;;;;70.00;18.67;;;4.20;99.90;;;;;;5034258;28;20124;-50
2023/02/22 04:54:08;;;;;;;95.73;20.30;;;4.20;99.90;;;;;;5033649;28;20060;-51
2023/02/22 04:56:36;;;;;;;71.67;18.17;;;4.30;99.90;;;;;;5033939;28;20036;-53
2023/02/22 04:59:02;;;;;;;104.50;20.13;;;4.30;99.90;;;;;;5033846;28;20028;-54
2023/02/22 05:01:35;;;;;;;78.27;19.67;;;4.30;99.90;;;;;;5051506;28;20032;-53
2023/02/22 05:04:05;;;;;;;66.27;19.03;;;4.30;99.90;;;;;;5033115;28;20056;-53
2023/02/22 05:06:30;;;;;;;;;;;4.40;99.90;;;;;;5052207;28;20033;-55
2023/02/22 05:08:56;;;;;;;76.93;19.97;;;4.40;99.90;;;;;;5051639;28;20391;-52
2023/02/22 05:11:23;;;;;;;98.57;21.30;;;4.40;99.90;;;;;;5051719;28;20025;-54
2023/02/22 05:13:48;;;;;;;100.60;21.97;;;4.40;99.90;;;;;;5051299;28;20098;-54
2023/02/22 05:16:15;;;;;;;88.00;21.07;;;4.50;99.90;;;;;;5051655;28;20493;-53
2023/02/22 05:18:41;;;;;;;82.80;21.60;;;4.50;99.90;;;;;;5051533;28;20075;-53
2023/02/22 05:21:07;;;;;;;76.00;20.70;;;4.50;99.90;;;;;;5050505;28;20057;-54
2023/02/22 05:23:32;;;;;;;79.33;22.13;;;4.50;99.90;;;;;;5051182;28;20025;-54
2023/02/22 05:25:59;;;;;;;89.87;24.17;;;4.60;99.90;;;;;;5051102;28;20525;-53
2023/02/22 05:28:25;;;;;;;103.60;22.97;;;4.60;99.90;;;;;;5051204;28;20029;-54
2023/02/22 05:30:50;;;;;;;88.77;22.70;;;4.60;99.90;;;;;;5050664;28;20449;-53
2023/02/22 05:33:16;;;;;;;77.70;21.23;;;4.60;99.90;;;;;;5051438;28;20031;-51
2023/02/22 05:35:42;;;;;;;123.53;23.33;;;4.60;99.90;;;;;;5049960;28;20025;-53
2023/02/22 05:38:13;;;;;;;73.10;22.20;;;4.60;99.90;;;;;;5051099;28;20033;-53
2023/02/22 05:40:40;;;;;;;149.23;24.83;;;4.60;99.90;;;;;;5050840;28;20099;-56
2023/02/22 05:43:06;;;;;;;123.80;23.53;;;4.50;99.90;;;;;;5051032;28;20120;-52
2023/02/22 05:45:32;;;;;;;120.87;24.43;;;4.50;99.90;;;;;;5050603;28;20112;-54
2023/02/22 05:47:58;;;;;;;149.37;23.27;;;4.50;99.90;;;;;;5050359;28;20037;-54
2023/02/22 05:50:24;;;;;;;132.87;23.90;;;4.50;99.90;;;;;;5049888;28;20084;-54
2023/02/22 05:52:51;;;;;;;98.40;22.27;;;4.60;99.90;;;;;;5050971;28;20025;-52
2023/02/22 05:55:19;;;;;;;72.70;20.60;;;4.60;99.90;;;;;;5058265;28;20025;-52
2023/02/22 05:57:45;;;;;;;115.43;21.53;;;4.50;99.90;;;;;;5060841;28;20047;-56
2023/02/22 06:00:22;;;;;;;84.97;20.80;;;4.50;99.90;;;;;;5070666;28;20412;-55
2023/02/22 06:03:00;;;;;;;107.00;21.07;;;4.50;99.90;;;;;;5057797;28;20123;-54
2023/02/22 06:05:26;;;;;;;106.93;20.93;;;4.40;99.90;;;;;;5048738;28;20090;-45
2023/02/22 06:07:52;;;;;;;100.33;23.37;;;4.40;99.90;;;;;;5049994;28;20025;-45
2023/02/22 06:10:19;;;;;;;75.27;22.03;;;4.40;99.90;;;;;;5049812;28;20403;-51
2023/02/22 06:12:46;;;;;;;81.80;20.93;;;4.40;99.90;;;;;;5032582;28;20033;-56
2023/02/22 06:15:13;;;;;;;97.77;22.80;;;4.50;99.90;;;;;;5032116;28;20033;-57
2023/02/22 06:17:40;;;;;;;102.67;22.57;;;4.50;99.90;;;;;;5050192;28;20091;-55
2023/02/22 06:20:11;;;;;;;100.17;23.60;;;4.50;99.90;;;;;;5049052;28;20106;-55
2023/02/22 06:22:36;;;;;;;113.33;23.50;;;4.50;99.90;;;;;;5050348;28;20045;-54
2023/02/22 06:25:07;;;;;;;155.67;23.53;;;4.40;99.90;;;;;;5050075;28;20055;-55
2023/02/22 06:27:33;;;;;;;117.07;24.00;;;4.50;99.90;;;;;;5050020;28;20024;-56
2023/02/22 06:30:00;;;;;;;180.50;23.87;;;4.50;99.90;;;;;;5049960;28;20104;-56
2023/02/22 06:32:26;;;;;;;83.67;23.70;;;4.50;99.90;;;;;;5050145;28;20032;-56
2023/02/22 06:34:52;;;;;;;74.30;22.17;;;4.40;99.90;;;;;;5048701;28;20421;-56
2023/02/22 06:37:18;;;;;;;112.17;22.90;;;4.50;99.90;;;;;;5049378;28;20036;-56
2023/02/22 06:39:44;;;;;;;114.17;24.13;;;4.50;99.90;;;;;;5049738;28;20032;-56
2023/02/22 06:42:10;;;;;;;80.70;22.57;;;4.40;99.90;;;;;;5049454;28;20037;-57
2023/02/22 06:44:35;;;;;;;227.60;29.00;;;4.40;99.90;;;;;;5049376;28;20473;-57
2023/02/22 06:47:01;;;;;;;84.30;23.70;;;4.50;99.90;;;;;;5049432;28;20033;-57
2023/02/22 06:49:27;;;;;;;133.90;25.93;;;4.50;99.90;;;;;;5048394;28;20793;-54
2023/02/22 06:51:53;;;;;;;118.23;26.57;;;4.50;99.90;;;;;;5049553;28;20035;-57
2023/02/22 06:54:21;;;;;;;72.27;24.37;;;4.50;99.90;;;;;;5049379;28;20021;-56
2023/02/22 06:56:48;;;;;;;139.77;25.77;;;4.40;99.90;;;;;;5049435;28;20032;-55
2023/02/22 06:59:14;;;;;;;114.13;24.63;;;4.40;99.90;;;;;;5049317;28;20064;-54
2023/02/22 07:01:41;;;;;;;85.70;24.57;;;4.50;99.90;;;;;;5049672;28;20052;-52
2023/02/22 07:04:07;;;;;;;75.67;25.40;;;4.50;99.90;;;;;;5047934;28;20062;-52
2023/02/22 07:06:33;;;;;;;84.07;24.07;;;4.50;99.90;;;;;;5048699;28;20071;-55
2023/02/22 07:08:59;;;;;;;74.90;23.83;;;4.50;99.90;;;;;;5048856;28;20037;-55
2023/02/22 07:11:25;;;;;;;72.90;24.00;;;4.50;99.90;;;;;;5049360;28;20135;-60
2023/02/22 07:13:51;;;;;;;61.27;22.60;;;4.50;99.90;;;;;;5048307;28;20040;-55
2023/02/22 07:16:17;;;;;;;66.17;23.07;;;4.50;99.90;;;;;;5048011;28;20029;-55
2023/02/22 07:18:42;;;;;;;61.30;23.00;;;4.60;99.90;;;;;;5059546;28;20033;-54
2023/02/22 07:21:08;;;;;;;58.13;23.23;;;4.60;99.90;;;;;;5066969;28;20392;-55
2023/02/22 07:23:34;;;;;;;57.30;22.47;;;4.60;99.90;;;;;;5068448;28;20064;-56
2023/02/22 07:26:00;;;;;;;51.83;21.47;;;4.60;99.90;;;;;;5068505;28;20115;-57
2023/02/22 07:28:26;;;;;;;46.87;20.53;;;4.60;99.90;;;;;;5068461;28;20041;-56
2023/02/22 07:30:52;;;;;;;48.43;19.40;;;4.60;99.90;;;;;;5068835;28;20043;-57
2023/02/22 07:33:17;;;;;;;47.47;19.50;;;4.70;99.90;;;;;;5068978;28;20028;-57
2023/02/22 07:35:46;;;;;;;46.40;19.47;;;4.80;99.90;;;;;;5067741;28;20537;-58
2023/02/22 07:38:13;;;;;;;45.70;19.57;;;4.80;99.90;;;;;;5068741;28;20116;-57
2023/02/22 07:40:41;;;;;;;43.00;20.10;;;4.90;99.90;;;;;;5068935;28;20381;-58
2023/02/22 07:43:28;;;;;;;41.60;18.27;;;5.00;99.90;;;;;;5069015;28;20036;-58
2023/02/22 07:45:55;;;;;;;43.27;19.60;;;5.10;99.90;;;;;;5068780;28;20131;-58
2023/02/22 07:48:23;;;;;;;35.63;16.73;;;5.10;99.90;;;;;;5068597;28;20408;-58
2023/02/22 07:50:50;;;;;;;41.70;18.97;;;5.20;99.90;;;;;;5067758;28;20040;-57
2023/02/22 07:53:23;;;;;;;36.50;18.17;;;5.30;99.90;;;;;;5069010;28;20678;-58
2023/02/22 07:55:50;;;;;;;36.87;17.57;;;5.40;99.90;;;;;;5050655;28;20123;-57
2023/02/22 07:58:19;;;;;;;39.67;18.00;;;5.50;99.90;;;;;;5068558;28;20043;-58
2023/02/22 08:00:47;;;;;;;36.30;17.33;;;5.50;99.90;;;;;;5068538;28;20056;-57
2023/02/22 08:03:13;;;;;;;33.20;17.03;;;5.60;99.90;;;;;;5068894;28;20127;-57
2023/02/22 08:05:43;;;;;;;32.23;16.20;;;5.70;99.90;;;;;;5052938;28;20033;-58
2023/02/22 08:08:09;;;;;;;36.17;17.60;;;5.80;99.90;;;;;;5063681;28;20433;-58
2023/02/22 08:10:35;;;;;;;30.77;15.67;;;5.90;99.90;;;;;;5057802;28;20068;-58
2023/02/22 08:13:03;;;;;;;36.03;17.33;;;6.00;99.90;;;;;;5057305;28;20033;-58
2023/02/22 08:15:31;;;;;;;31.80;16.60;;;6.10;99.90;;;;;;5050443;28;20040;-58
2023/02/22 08:17:59;;;;;;;31.10;15.73;;;6.30;99.90;;;;;;5058748;28;20090;-57
2023/02/22 08:20:26;;;;;;;31.40;16.27;;;6.50;99.90;;;;;;5055339;28;20030;-57
2023/02/22 08:22:52;;;;;;;30.70;15.63;;;6.60;99.90;;;;;;5053320;28;20033;-58
2023/02/22 08:25:20;;;;;;;34.13;16.50;;;6.60;99.90;;;;;;5051297;28;20122;-57
2023/02/22 08:27:46;;;;;;;32.63;17.00;;;6.60;99.90;;;;;;5053243;28;20035;-57
2023/02/22 08:30:20;;;;;;;30.73;16.60;;;6.60;99.90;;;;;;5055655;28;20393;-58
2023/02/22 08:32:46;;;;;;;26.73;15.10;;;6.70;99.90;;;;;;5053149;28;20132;-58
2023/02/22 08:35:13;;;;;;;30.77;16.57;;;6.80;99.90;;;;;;5048395;28;20025;-57
2023/02/22 08:37:47;;;;;;;33.20;16.80;;;6.90;99.90;;;;;;5048459;28;20410;-58
2023/02/22 08:40:16;;;;;;;30.83;16.27;;;7.10;99.90;;;;;;5047781;28;20065;-58
2023/02/22 08:42:42;;;;;;;31.75;16.85;;;7.10;99.90;;;;;;5048540;28;20512;-57
2023/02/22 08:45:09;;;;;;;32.27;17.30;;;7.20;99.90;;;;;;5048167;28;20112;-57
2023/02/22 08:47:35;;;;;;;29.13;16.13;;;7.30;99.90;;;;;;5048104;28;20105;-57
2023/02/22 08:50:01;;;;;;;27.40;15.57;;;7.40;99.90;;;;;;5047116;28;20025;-56
2023/02/22 08:52:27;;;;;;;29.87;14.97;;;7.50;99.90;;;;;;5048357;28;20458;-57
2023/02/22 08:54:54;;;;;;;31.10;15.73;;;7.50;99.90;;;;;;5029791;28;20508;-56
2023/02/22 08:57:20;;;;;;;31.50;15.17;;;7.80;99.90;;;;;;5047950;28;20048;-57
2023/02/22 08:59:46;;;;;;;26.73;15.27;;;8.00;99.90;;;;;;5048038;28;20033;-57
2023/02/22 09:02:17;;;;;;;27.27;14.77;;;8.10;99.90;;;;;;5047974;28;20037;-57
2023/02/22 09:04:43;;;;;;;28.97;14.43;;;8.30;99.90;;;;;;5030685;28;20021;-58
2023/02/22 09:07:09;;;;;;;26.40;14.30;;;8.60;99.90;;;;;;5051540;28;20441;-58
2023/02/22 09:09:35;;;;;;;26.27;14.23;;;9.00;99.90;;;;;;5051930;28;20385;-58
2023/02/22 09:12:01;;;;;;;23.77;13.53;;;9.20;99.90;;;;;;5034345;28;20043;-58
2023/02/22 09:14:27;;;;;;;23.10;13.23;;;9.50;99.90;;;;;;5051776;28;20057;-58
2023/02/22 09:16:53;;;;;;;24.57;14.03;;;9.70;99.90;;;;;;5051878;28;20344;-58
2023/02/22 09:19:19;;;;;;;27.60;14.30;;;9.90;99.90;;;;;;5050508;28;20099;-59
2023/02/22 09:21:44;;;;;;;23.88;12.95;;;10.00;99.90;;;;;;5051943;28;20037;-58
2023/02/22 09:24:10;;;;;;;22.75;12.88;;;10.30;99.90;;;;;;5050727;28;20120;-58
2023/02/22 09:26:46;;;;;;;23.10;13.55;;;10.50;99.90;;;;;;5051501;28;20481;-58
2023/02/22 09:29:12;;;;;;;21.73;12.82;;;10.70;99.90;;;;;;5051064;28;20481;-58
2023/02/22 09:31:39;;;;;;;23.58;13.63;;;10.90;99.90;;;;;;5051633;28;20044;-56
2023/02/22 09:34:12;;;;;;;21.20;12.55;;;11.30;99.90;;;;;;5050458;28;20029;-57
2023/02/22 09:36:47;;;;;;;22.58;12.48;;;11.50;99.90;;;;;;5032957;28;20136;-57
2023/02/22 09:39:15;;;;;;;23.63;12.85;;;11.70;99.90;;;;;;5051013;28;20432;-57
2023/02/22 09:41:49;;;;;;;22.05;13.82;;;11.80;99.90;;;;;;5051711;28;20063;-50
2023/02/22 09:44:27;;;;;;;24.30;13.13;;;11.70;99.90;;;;;;5050548;28;20497;-52
2023/02/22 09:46:55;;;;;;;20.27;12.63;;;11.90;99.90;;;;;;5050675;28;20037;-58
2023/02/22 09:49:20;;;;;;;20.30;11.95;;;11.70;99.90;;;;;;5049702;28;20321;-54
2023/02/22 09:52:41;;;;;;;21.58;13.02;;;12.10;99.90;;;;;;5051343;28;20055;-57
2023/02/22 09:55:18;;;;;;;23.88;13.90;;;12.50;99.90;;;;;;4995308;28;20429;-59
2023/02/22 09:57:45;;;;;;;21.33;12.57;;;12.40;99.90;;;;;;5050620;28;20104;-52
2023/02/22 10:00:28;;;;;;;21.83;12.23;;;12.80;99.90;;;;;;5052724;28;20029;-53
2023/02/22 10:03:27;;;;;;;20.48;13.07;;;13.20;99.90;;;;;;5063517;28;20031;-55
2023/02/22 10:06:11;;;;;;;;;;;13.10;99.90;;;;;;5029347;28;20388;-54
2023/02/22 10:08:38;;;;;;;17.13;10.90;;;13.50;99.90;;;;;;5055765;28;19919;-55
2023/02/22 10:11:16;;;;;;;19.27;11.75;;;13.60;99.90;;;;;;5060685;28;20052;-55
2023/02/22 10:13:56;;;;;;;20.63;11.73;;;13.70;99.90;;;;;;5060612;28;20033;-56
2023/02/22 10:16:26;;;;;;;19.92;10.95;;;13.60;99.90;;;;;;5062896;28;20028;-56
2023/02/22 10:19:01;;;;;;;19.33;11.38;;;14.00;99.90;;;;;;5060005;28;20021;-57
2023/02/22 10:21:56;;;;;;;17.13;10.35;;;14.10;99.90;;;;;;5055297;28;20065;-54
2023/02/22 10:24:46;;;;;;;19.67;10.07;;;14.30;99.90;;;;;;5057218;28;20036;-54
2023/02/22 10:30:20;;;;;;;17.65;9.80;;;14.50;99.90;;;;;;5041522;28;20410;-57
2023/02/22 10:32:51;;;;;;;18.88;10.75;;;14.40;99.90;;;;;;5043290;28;20036;-57
2023/02/22 10:35:31;;;;;;;18.50;9.43;;;14.80;99.90;;;;;;5045831;28;20504;-57
2023/02/22 10:38:24;;;;;;;15.27;9.13;;;14.90;99.90;;;;;;5046579;28;20091;-58
2023/02/22 10:40:57;;;;;;;16.35;9.32;;;15.30;99.90;;;;;;5038422;28;20444;-58
2023/02/22 10:43:24;;;;;;;13.88;8.73;;;15.40;99.90;;;;;;5047058;28;20073;-58
2023/02/22 10:45:54;;;;;;;14.35;8.68;;;15.60;99.90;;;;;;5046739;28;20059;-58
2023/02/22 10:48:23;;;;;;;14.75;7.93;;;15.60;99.90;;;;;;5046819;28;20108;-58
2023/02/22 10:50:52;;;;;;;17.35;7.30;;;16.00;99.90;;;;;;5045385;28;20039;-59
2023/02/22 10:53:18;;;;;;;16.35;7.78;;;16.30;99.70;;;;;;5045430;28;20899;-59
2023/02/22 10:56:20;;;;;;;14.30;7.10;;;16.60;98.20;;;;;;5046359;28;20124;-58
2023/02/22 10:58:50;;;;;;;13.80;6.72;;;16.40;98.50;;;;;;5047093;28;20059;-57
2023/02/22 11:01:19;;;;;;;11.80;7.10;;;16.50;97.60;;;;;;5049480;28;20066;-58
2023/02/22 11:03:54;;;;;;;12.48;7.28;;;16.60;98.10;;;;;;5048623;28;20037;-58
2023/02/22 11:06:20;;;;;;;12.27;6.47;;;16.80;95.90;;;;;;5048204;28;20047;-58
2023/02/22 11:08:50;;;;;;;10.82;5.95;;;16.70;97.70;;;;;;5049412;28;20067;-58
2023/02/22 11:11:28;;;;;;;12.38;6.72;;;17.00;94.90;;;;;;5049388;28;20025;-58
2023/02/22 11:13:55;;;;;;;13.68;7.07;;;17.10;95.80;;;;;;5049349;28;20111;-59
2023/02/22 11:16:48;;;;;;;13.93;6.53;;;17.00;95.10;;;;;;5048669;28;20091;-59
2023/02/22 11:19:23;;;;;;;16.45;7.55;;;17.10;95.70;;;;;;5048238;28;20466;-58
2023/02/22 11:21:56;;;;;;;11.82;6.90;;;17.20;95.00;;;;;;5049479;28;20480;-58
2023/02/22 11:24:23;;;;;;;12.10;7.05;;;17.40;94.10;;;;;;5049110;28;20545;-58
2023/02/22 11:26:55;;;;;;;12.88;6.43;;;17.50;93.50;;;;;;5048637;28;20208;-60
2023/02/22 11:29:32;;;;;;;11.27;6.28;;;17.50;93.40;;;;;;5048673;28;20037;-57
2023/02/22 11:32:10;;;;;;;11.73;6.65;;;17.40;93.10;;;;;;5048927;28;20104;-60
2023/02/22 11:34:39;;;;;;;13.52;6.13;;;17.00;94.00;;;;;;5047632;28;20044;-57
2023/02/22 11:37:21;;;;;;;12.23;6.07;;;17.10;93.20;;;;;;5048608;28;20021;-57
2023/02/22 11:39:50;;;;;;;11.85;6.78;;;17.20;93.40;;;;;;5048806;28;20057;-58
2023/02/22 11:42:27;;;;;;;12.38;6.25;;;17.20;92.70;;;;;;5048900;28;20061;-59
2023/02/22 11:45:11;;;;;;;13.07;6.32;;;17.10;92.90;;;;;;5048095;28;20029;-59
2023/02/22 11:48:07;;;;;;;15.38;7.55;;;17.10;92.30;;;;;;5048170;28;20178;-59
2023/02/22 11:50:50;;;;;;;15.25;7.40;;;16.80;93.00;;;;;;5047430;28;20024;-59
2023/02/22 11:54:10;;;;;;;13.75;7.07;;;16.50;93.30;;;;;;5048592;28;20036;-59
2023/02/22 11:56:43;;;;;;;13.23;6.82;;;16.50;93.20;;;;;;4967059;28;20591;-59
2023/02/22 11:59:22;;;;;;;12.10;6.30;;;16.50;93.40;;;;;;5035300;28;20037;-59
2023/02/22 12:02:12;;;;;;;17.17;7.30;;;16.40;94.00;;;;;;5048957;28;20036;-59
2023/02/22 12:05:12;;;;;;;22.40;8.10;;;16.40;93.60;;;;;;5047130;28;20029;-59
2023/02/22 12:07:41;;;;;;;13.98;6.32;;;16.40;94.40;;;;;;5047973;28;20179;-59
2023/02/22 12:10:25;;;;;;;12.88;5.78;;;16.70;94.20;;;;;;5048085;28;20040;-47
2023/02/22 12:13:04;;;;;;;12.05;6.47;;;17.00;92.70;;;;;;5048741;28;20102;-51
2023/02/22 12:16:19;;;;;;;13.70;6.07;;;17.20;92.30;;;;;;5048178;28;20100;-47
2023/02/22 12:19:12;;;;;;;10.93;6.03;;;17.40;92.40;;;;;;4988176;28;20033;-59
2023/02/22 12:21:42;;;;;;;9.93;5.47;;;17.70;92.10;;;;;;5048830;28;20067;-58
2023/02/22 12:24:18;;;;;;;11.43;5.78;;;17.80;92.70;;;;;;5048178;28;20158;-58
2023/02/22 12:26:55;;;;;;;9.85;6.15;;;17.90;90.60;;;;;;5048580;28;20115;-59
2023/02/22 12:29:37;;;;;;;9.93;5.85;;;17.90;90.90;;;;;;5047963;28;20127;-58
2023/02/22 12:32:15;;;;;;;10.55;5.90;;;17.90;91.20;;;;;;5048756;28;20132;-58
2023/02/22 12:35:22;;;;;;;13.75;6.85;;;17.70;90.70;;;;;;5046929;28;20073;-59
2023/02/22 12:37:58;;;;;;;11.90;6.53;;;17.70;90.70;;;;;;5017988;28;20037;-58
2023/02/22 12:40:40;;;;;;;15.40;6.00;;;17.70;91.10;;;;;;5050982;28;20048;-59
2023/02/22 12:43:25;;;;;;;13.07;6.50;;;17.70;89.30;;;;;;5052499;28;20059;-59
2023/02/22 12:46:14;;;;;;;11.00;7.10;;;17.70;90.30;;;;;;5052076;28;20111;-59
2023/02/22 12:49:02;;;;;;;12.20;6.75;;;17.50;90.90;;;;;;5052076;28;20431;-58
2023/02/22 12:51:47;;;;;;;16.73;8.10;;;17.40;90.70;;;;;;5051162;28;20029;-60
2023/02/22 12:54:21;;;;;;;16.63;7.13;;;17.50;90.80;;;;;;5051875;28;20427;-57
2023/02/22 12:57:13;;;;;;;11.43;6.85;;;17.70;90.50;;;;;;5051626;28;20043;-58
2023/02/22 12:59:53;;;;;;;13.93;6.35;;;17.50;91.60;;;;;;5051617;28;20032;-58
2023/02/22 13:02:40;;;;;;;12.95;6.97;;;17.60;90.70;;;;;;5051889;28;20037;-58